sensor_id;sensor_type;location;lat;lon;timestamp;pressure;altitude;pressure_sealevel;temperature;humidity
32109;BME280;18624;50.042;8.436;2022-07-06T00:00:05;101116.63;;;20.77;51.15
32109;BME280;18624;50.042;8.436;2022-07-06T00:02:32;101126.69;;;20.74;51.36
32109;BME280;18624;50.042;8.436;2022-07-06T00:04:58;101127.38;;;20.69;51.86
32109;BME280;18624;50.042;8.436;2022-07-06T00:07:25;101116.91;;;20.64;51.58
32109;BME280;18624;50.042;8.436;2022-07-06T00:09:52;101115.25;;;20.58;51.93
32109;BME280;18624;50.042;8.436;2022-07-06T00:12:18;101124.28;;;20.53;52.47
32109;BME280;18624;50.042;8.436;2022-07-06T00:14:45;101128.81;;;20.50;52.49
32109;BME280;18624;50.042;8.436;2022-07-06T00:17:11;101131.59;;;20.50;52.71
32109;BME280;18624;50.042;8.436;2022-07-06T00:19:38;101131.94;;;20.43;52.77
32109;BME280;18624;50.042;8.436;2022-07-06T00:22:04;101127.53;;;20.36;53.12
32109;BME280;18624;50.042;8.436;2022-07-06T00:24:31;101128.00;;;20.35;53.10
32109;BME280;18624;50.042;8.436;2022-07-06T00:26:57;101136.56;;;20.31;53.27
32109;BME280;18624;50.042;8.436;2022-07-06T00:29:23;101133.09;;;20.36;52.99
32109;BME280;18624;50.042;8.436;2022-07-06T00:31:50;101132.63;;;20.38;52.98
32109;BME280;18624;50.042;8.436;2022-07-06T00:34:16;101130.59;;;20.38;52.82
32109;BME280;18624;50.042;8.436;2022-07-06T00:36:43;101120.31;;;20.30;53.22
32109;BME280;18624;50.042;8.436;2022-07-06T00:39:10;101119.56;;;20.29;53.32
32109;BME280;18624;50.042;8.436;2022-07-06T00:41:36;101123.28;;;20.26;53.38
32109;BME280;18624;50.042;8.436;2022-07-06T00:44:07;101124.53;;;20.25;53.73
32109;BME280;18624;50.042;8.436;2022-07-06T00:46:35;101126.06;;;20.26;53.84
32109;BME280;18624;50.042;8.436;2022-07-06T00:49:02;101126.56;;;20.24;53.68
32109;BME280;18624;50.042;8.436;2022-07-06T00:51:30;101126.44;;;20.19;54.34
32109;BME280;18624;50.042;8.436;2022-07-06T00:54:02;101132.69;;;20.14;54.39
32109;BME280;18624;50.042;8.436;2022-07-06T00:56:30;101139.97;;;20.11;54.85
32109;BME280;18624;50.042;8.436;2022-07-06T00:58:59;101128.66;;;20.15;54.82
32109;BME280;18624;50.042;8.436;2022-07-06T01:01:26;101135.94;;;20.12;54.90
32109;BME280;18624;50.042;8.436;2022-07-06T01:03:54;101123.94;;;20.06;54.92
32109;BME280;18624;50.042;8.436;2022-07-06T01:06:20;101129.66;;;20.03;54.84
32109;BME280;18624;50.042;8.436;2022-07-06T01:08:47;101129.22;;;20.04;54.80
32109;BME280;18624;50.042;8.436;2022-07-06T01:11:14;101134.56;;;20.08;54.74
32109;BME280;18624;50.042;8.436;2022-07-06T01:13:42;101131.69;;;20.02;55.23
32109;BME280;18624;50.042;8.436;2022-07-06T01:16:09;101127.38;;;20.01;55.38
32109;BME280;18624;50.042;8.436;2022-07-06T01:18:35;101132.16;;;19.86;55.91
32109;BME280;18624;50.042;8.436;2022-07-06T01:21:13;101126.81;;;19.73;55.62
32109;BME280;18624;50.042;8.436;2022-07-06T01:23:45;101125.41;;;19.78;55.72
32109;BME280;18624;50.042;8.436;2022-07-06T01:26:13;101127.69;;;19.79;55.96
32109;BME280;18624;50.042;8.436;2022-07-06T01:28:40;101130.00;;;19.81;55.81
32109;BME280;18624;50.042;8.436;2022-07-06T01:31:24;101130.47;;;19.79;55.94
32109;BME280;18624;50.042;8.436;2022-07-06T01:33:54;101094.72;;;19.63;56.03
32109;BME280;18624;50.042;8.436;2022-07-06T01:36:21;101124.03;;;19.73;56.33
32109;BME280;18624;50.042;8.436;2022-07-06T01:38:50;101121.44;;;19.69;56.05
32109;BME280;18624;50.042;8.436;2022-07-06T01:41:18;101131.63;;;19.72;56.31
32109;BME280;18624;50.042;8.436;2022-07-06T01:43:45;101125.75;;;19.70;56.06
32109;BME280;18624;50.042;8.436;2022-07-06T01:46:12;101120.34;;;19.67;56.28
32109;BME280;18624;50.042;8.436;2022-07-06T01:48:39;101117.13;;;19.68;55.87
32109;BME280;18624;50.042;8.436;2022-07-06T01:51:06;101129.34;;;19.62;56.06
32109;BME280;18624;50.042;8.436;2022-07-06T01:53:33;101122.13;;;19.55;55.88
32109;BME280;18624;50.042;8.436;2022-07-06T01:56:00;100996.75;;;18.63;56.03
32109;BME280;18624;50.042;8.436;2022-07-06T01:58:27;101115.91;;;19.36;55.64
32109;BME280;18624;50.042;8.436;2022-07-06T02:00:54;101116.50;;;19.31;55.15
32109;BME280;18624;50.042;8.436;2022-07-06T02:03:20;101114.69;;;19.28;54.91
32109;BME280;18624;50.042;8.436;2022-07-06T02:05:47;101082.59;;;18.94;54.33
32109;BME280;18624;50.042;8.436;2022-07-06T02:08:14;101114.94;;;19.06;54.73
32109;BME280;18624;50.042;8.436;2022-07-06T02:10:40;101118.22;;;18.95;54.79
32109;BME280;18624;50.042;8.436;2022-07-06T02:13:07;101118.25;;;18.86;54.77
32109;BME280;18624;50.042;8.436;2022-07-06T02:15:33;101113.66;;;18.83;55.06
32109;BME280;18624;50.042;8.436;2022-07-06T02:18:00;101113.34;;;18.81;55.02
32109;BME280;18624;50.042;8.436;2022-07-06T02:20:26;101112.13;;;18.82;54.92
32109;BME280;18624;50.042;8.436;2022-07-06T02:22:53;101112.56;;;18.81;54.98
32109;BME280;18624;50.042;8.436;2022-07-06T02:25:20;101114.44;;;18.75;55.23
32109;BME280;18624;50.042;8.436;2022-07-06T02:27:46;101107.94;;;18.68;55.41
32109;BME280;18624;50.042;8.436;2022-07-06T02:30:13;101118.91;;;18.72;55.84
32109;BME280;18624;50.042;8.436;2022-07-06T02:32:40;101118.00;;;18.66;55.78
32109;BME280;18624;50.042;8.436;2022-07-06T02:35:07;101042.72;;;18.03;56.23
32109;BME280;18624;50.042;8.436;2022-07-06T02:37:34;101122.97;;;18.43;56.64
32109;BME280;18624;50.042;8.436;2022-07-06T02:40:01;101119.28;;;18.46;56.96
32109;BME280;18624;50.042;8.436;2022-07-06T02:42:29;101117.88;;;18.42;56.79
32109;BME280;18624;50.042;8.436;2022-07-06T02:44:55;101114.78;;;18.40;57.04
32109;BME280;18624;50.042;8.436;2022-07-06T02:47:22;101124.06;;;18.18;57.45
32109;BME280;18624;50.042;8.436;2022-07-06T02:49:49;101114.34;;;18.05;58.06
32109;BME280;18624;50.042;8.436;2022-07-06T02:52:15;101126.41;;;18.11;58.33
32109;BME280;18624;50.042;8.436;2022-07-06T02:54:42;101124.81;;;18.10;58.20
32109;BME280;18624;50.042;8.436;2022-07-06T02:57:08;101131.94;;;18.20;58.02
32109;BME280;18624;50.042;8.436;2022-07-06T02:59:36;101130.22;;;18.32;57.69
32109;BME280;18624;50.042;8.436;2022-07-06T03:02:04;101122.97;;;18.34;57.29
32109;BME280;18624;50.042;8.436;2022-07-06T03:04:31;101125.63;;;18.19;58.03
32109;BME280;18624;50.042;8.436;2022-07-06T03:06:58;101131.59;;;18.27;57.81
32109;BME280;18624;50.042;8.436;2022-07-06T03:09:25;101133.00;;;18.22;58.05
32109;BME280;18624;50.042;8.436;2022-07-06T03:11:52;101129.00;;;18.23;58.13
32109;BME280;18624;50.042;8.436;2022-07-06T03:14:19;101124.38;;;18.20;58.12
32109;BME280;18624;50.042;8.436;2022-07-06T03:16:48;101139.94;;;18.27;57.96
32109;BME280;18624;50.042;8.436;2022-07-06T03:19:17;101142.41;;;18.16;58.69
32109;BME280;18624;50.042;8.436;2022-07-06T03:21:44;101151.97;;;18.15;58.99
32109;BME280;18624;50.042;8.436;2022-07-06T03:24:11;101144.56;;;18.03;59.21
32109;BME280;18624;50.042;8.436;2022-07-06T03:26:37;101076.25;;;17.50;59.31
32109;BME280;18624;50.042;8.436;2022-07-06T03:29:04;101125.91;;;17.85;59.02
32109;BME280;18624;50.042;8.436;2022-07-06T03:31:30;101155.06;;;18.08;58.81
32109;BME280;18624;50.042;8.436;2022-07-06T03:33:57;101157.22;;;18.13;58.81
32109;BME280;18624;50.042;8.436;2022-07-06T03:36:25;101158.28;;;18.15;58.42
32109;BME280;18624;50.042;8.436;2022-07-06T03:38:51;101149.50;;;18.17;58.40
32109;BME280;18624;50.042;8.436;2022-07-06T03:41:18;101031.41;;;17.33;58.05
32109;BME280;18624;50.042;8.436;2022-07-06T03:43:46;101144.72;;;18.17;58.79
32109;BME280;18624;50.042;8.436;2022-07-06T03:46:12;101051.75;;;17.49;58.74
32109;BME280;18624;50.042;8.436;2022-07-06T03:48:39;101118.66;;;17.87;59.46
32109;BME280;18624;50.042;8.436;2022-07-06T03:51:07;101141.19;;;17.99;59.12
32109;BME280;18624;50.042;8.436;2022-07-06T03:53:34;101153.03;;;18.08;59.66
32109;BME280;18624;50.042;8.436;2022-07-06T03:56:00;101156.59;;;18.09;59.97
32109;BME280;18624;50.042;8.436;2022-07-06T03:58:46;101133.78;;;17.95;59.94
32109;BME280;18624;50.042;8.436;2022-07-06T04:01:13;101170.47;;;18.18;60.11
32109;BME280;18624;50.042;8.436;2022-07-06T04:03:40;101142.09;;;17.95;59.99
32109;BME280;18624;50.042;8.436;2022-07-06T04:06:07;101172.94;;;18.25;59.86
32109;BME280;18624;50.042;8.436;2022-07-06T04:08:35;101171.06;;;18.31;59.92
32109;BME280;18624;50.042;8.436;2022-07-06T04:11:01;101185.91;;;18.28;59.64
32109;BME280;18624;50.042;8.436;2022-07-06T04:13:28;101171.84;;;18.22;59.76
32109;BME280;18624;50.042;8.436;2022-07-06T04:15:55;101179.09;;;18.20;59.94
32109;BME280;18624;50.042;8.436;2022-07-06T04:18:22;101141.00;;;17.84;60.51
32109;BME280;18624;50.042;8.436;2022-07-06T04:20:52;101188.63;;;17.91;61.18
32109;BME280;18624;50.042;8.436;2022-07-06T04:23:19;101191.69;;;17.84;61.71
32109;BME280;18624;50.042;8.436;2022-07-06T04:25:46;101188.16;;;17.84;61.95
32109;BME280;18624;50.042;8.436;2022-07-06T04:28:14;101183.53;;;17.90;61.75
32109;BME280;18624;50.042;8.436;2022-07-06T04:30:42;101193.53;;;17.96;61.96
32109;BME280;18624;50.042;8.436;2022-07-06T04:33:12;101189.56;;;17.98;61.42
32109;BME280;18624;50.042;8.436;2022-07-06T04:35:40;101186.19;;;18.03;61.98
32109;BME280;18624;50.042;8.436;2022-07-06T04:38:06;101186.94;;;18.03;61.79
32109;BME280;18624;50.042;8.436;2022-07-06T04:40:33;101197.13;;;18.06;61.75
32109;BME280;18624;50.042;8.436;2022-07-06T04:43:04;101200.50;;;18.01;62.47
32109;BME280;18624;50.042;8.436;2022-07-06T04:45:31;101199.56;;;18.04;62.29
32109;BME280;18624;50.042;8.436;2022-07-06T04:47:59;101200.97;;;18.00;61.78
32109;BME280;18624;50.042;8.436;2022-07-06T04:50:26;101196.50;;;18.02;62.15
32109;BME280;18624;50.042;8.436;2022-07-06T04:52:57;101193.41;;;18.09;62.36
32109;BME280;18624;50.042;8.436;2022-07-06T04:55:24;101197.91;;;18.07;62.42
32109;BME280;18624;50.042;8.436;2022-07-06T04:57:50;101202.22;;;18.08;62.13
32109;BME280;18624;50.042;8.436;2022-07-06T05:00:21;101207.59;;;18.02;62.15
32109;BME280;18624;50.042;8.436;2022-07-06T05:02:49;101203.72;;;18.00;61.98
32109;BME280;18624;50.042;8.436;2022-07-06T05:05:17;101204.81;;;17.93;62.42
32109;BME280;18624;50.042;8.436;2022-07-06T05:07:45;101196.78;;;17.95;61.95
32109;BME280;18624;50.042;8.436;2022-07-06T05:10:13;101153.88;;;17.68;62.14
32109;BME280;18624;50.042;8.436;2022-07-06T05:12:42;101220.34;;;17.81;63.34
32109;BME280;18624;50.042;8.436;2022-07-06T05:15:10;101216.16;;;17.77;62.93
32109;BME280;18624;50.042;8.436;2022-07-06T05:17:36;101224.47;;;17.77;63.21
32109;BME280;18624;50.042;8.436;2022-07-06T05:20:05;101221.41;;;17.75;62.84
32109;BME280;18624;50.042;8.436;2022-07-06T05:22:35;101216.75;;;17.71;62.63
32109;BME280;18624;50.042;8.436;2022-07-06T05:25:11;101224.66;;;17.82;62.66
32109;BME280;18624;50.042;8.436;2022-07-06T05:27:38;101222.97;;;17.85;62.88
32109;BME280;18624;50.042;8.436;2022-07-06T05:30:05;101229.88;;;17.80;63.50
32109;BME280;18624;50.042;8.436;2022-07-06T05:32:32;101225.28;;;17.86;62.91
32109;BME280;18624;50.042;8.436;2022-07-06T05:34:59;101229.28;;;17.85;63.33
32109;BME280;18624;50.042;8.436;2022-07-06T05:37:45;101229.44;;;17.91;63.70
32109;BME280;18624;50.042;8.436;2022-07-06T05:40:12;101204.94;;;17.80;63.93
32109;BME280;18624;50.042;8.436;2022-07-06T05:42:39;101243.47;;;17.96;63.98
32109;BME280;18624;50.042;8.436;2022-07-06T05:45:06;101225.63;;;18.07;63.00
32109;BME280;18624;50.042;8.436;2022-07-06T05:47:33;101220.84;;;18.07;62.32
32109;BME280;18624;50.042;8.436;2022-07-06T05:50:18;101148.19;;;17.63;61.74
32109;BME280;18624;50.042;8.436;2022-07-06T05:52:57;101074.47;;;17.16;61.18
32109;BME280;18624;50.042;8.436;2022-07-06T05:55:26;101230.25;;;18.10;60.73
32109;BME280;18624;50.042;8.436;2022-07-06T06:00:34;101231.63;;;18.14;61.02
32109;BME280;18624;50.042;8.436;2022-07-06T06:03:08;101219.31;;;18.06;60.48
32109;BME280;18624;50.042;8.436;2022-07-06T06:05:35;101199.56;;;17.86;60.80
32109;BME280;18624;50.042;8.436;2022-07-06T06:08:05;101227.16;;;17.99;60.61
32109;BME280;18624;50.042;8.436;2022-07-06T06:10:32;101239.66;;;18.12;59.72
32109;BME280;18624;50.042;8.436;2022-07-06T06:16:05;101111.41;;;17.13;59.01
32109;BME280;18624;50.042;8.436;2022-07-06T06:18:31;101130.22;;;17.27;58.63
32109;BME280;18624;50.042;8.436;2022-07-06T06:21:06;101177.28;;;17.58;59.37
32109;BME280;18624;50.042;8.436;2022-07-06T06:23:33;101210.78;;;17.91;58.82
32109;BME280;18624;50.042;8.436;2022-07-06T06:25:59;101224.38;;;17.89;60.76
32109;BME280;18624;50.042;8.436;2022-07-06T06:28:26;101233.47;;;17.99;59.05
32109;BME280;18624;50.042;8.436;2022-07-06T06:30:53;101207.41;;;17.87;60.20
32109;BME280;18624;50.042;8.436;2022-07-06T06:33:20;101200.03;;;17.93;58.29
32109;BME280;18624;50.042;8.436;2022-07-06T06:35:51;101183.69;;;17.86;58.20
32109;BME280;18624;50.042;8.436;2022-07-06T06:38:20;101238.16;;;18.30;58.07
32109;BME280;18624;50.042;8.436;2022-07-06T06:40:47;101234.28;;;18.36;58.48
32109;BME280;18624;50.042;8.436;2022-07-06T06:43:14;101205.13;;;18.22;59.75
32109;BME280;18624;50.042;8.436;2022-07-06T06:45:50;101159.84;;;18.07;59.18
32109;BME280;18624;50.042;8.436;2022-07-06T06:48:16;101227.97;;;18.63;58.86
32109;BME280;18624;50.042;8.436;2022-07-06T06:50:45;101163.53;;;18.22;57.47
32109;BME280;18624;50.042;8.436;2022-07-06T06:53:12;101246.19;;;18.83;56.88
32109;BME280;18624;50.042;8.436;2022-07-06T06:55:38;101159.97;;;18.31;57.15
32109;BME280;18624;50.042;8.436;2022-07-06T06:58:04;101224.13;;;18.88;57.32
32109;BME280;18624;50.042;8.436;2022-07-06T07:00:31;101206.53;;;18.82;55.76
32109;BME280;18624;50.042;8.436;2022-07-06T07:02:57;101186.31;;;18.72;54.09
32109;BME280;18624;50.042;8.436;2022-07-06T07:05:24;101255.69;;;19.18;56.04
32109;BME280;18624;50.042;8.436;2022-07-06T07:07:51;101218.38;;;19.01;55.38
32109;BME280;18624;50.042;8.436;2022-07-06T07:10:17;101109.81;;;18.62;54.40
32109;BME280;18624;50.042;8.436;2022-07-06T07:12:46;101133.25;;;18.80;54.60
32109;BME280;18624;50.042;8.436;2022-07-06T07:15:14;101184.19;;;19.28;52.99
32109;BME280;18624;50.042;8.436;2022-07-06T07:17:40;101254.81;;;19.88;52.79
32109;BME280;18624;50.042;8.436;2022-07-06T07:20:07;101269.06;;;20.14;52.67
32109;BME280;18624;50.042;8.436;2022-07-06T07:22:34;101103.94;;;18.79;50.11
32109;BME280;18624;50.042;8.436;2022-07-06T07:25:01;100934.59;;;17.57;50.71
32109;BME280;18624;50.042;8.436;2022-07-06T07:27:27;101177.47;;;19.02;52.05
32109;BME280;18624;50.042;8.436;2022-07-06T07:29:54;101127.56;;;18.65;52.43
32109;BME280;18624;50.042;8.436;2022-07-06T07:32:20;101193.75;;;19.27;52.49
32109;BME280;18624;50.042;8.436;2022-07-06T07:34:47;101207.88;;;19.47;52.85
32109;BME280;18624;50.042;8.436;2022-07-06T07:37:13;101090.69;;;18.74;52.37
32109;BME280;18624;50.042;8.436;2022-07-06T07:39:40;101276.09;;;20.00;49.91
32109;BME280;18624;50.042;8.436;2022-07-06T07:42:07;101238.41;;;19.90;51.42
32109;BME280;18624;50.042;8.436;2022-07-06T07:44:33;101256.91;;;20.02;49.28
32109;BME280;18624;50.042;8.436;2022-07-06T07:47:00;101174.03;;;19.49;50.18
32109;BME280;18624;50.042;8.436;2022-07-06T07:49:26;101168.13;;;19.56;49.61
32109;BME280;18624;50.042;8.436;2022-07-06T07:51:53;101211.19;;;19.70;48.06
32109;BME280;18624;50.042;8.436;2022-07-06T07:54:19;101192.47;;;19.37;48.99
32109;BME280;18624;50.042;8.436;2022-07-06T07:56:46;101253.47;;;19.83;50.25
32109;BME280;18624;50.042;8.436;2022-07-06T07:59:12;101105.75;;;18.91;50.11
32109;BME280;18624;50.042;8.436;2022-07-06T08:01:40;101187.28;;;19.54;49.64
32109;BME280;18624;50.042;8.436;2022-07-06T08:04:07;101235.09;;;19.77;50.20
32109;BME280;18624;50.042;8.436;2022-07-06T08:06:33;101220.25;;;19.80;48.58
32109;BME280;18624;50.042;8.436;2022-07-06T08:09:00;101202.25;;;19.66;48.40
32109;BME280;18624;50.042;8.436;2022-07-06T08:11:26;101113.03;;;19.21;48.85
32109;BME280;18624;50.042;8.436;2022-07-06T08:13:53;101175.41;;;19.87;48.12
32109;BME280;18624;50.042;8.436;2022-07-06T08:16:19;101265.47;;;20.61;46.54
32109;BME280;18624;50.042;8.436;2022-07-06T08:18:46;101250.19;;;20.57;46.20
32109;BME280;18624;50.042;8.436;2022-07-06T08:21:12;101122.97;;;19.70;46.54
32109;BME280;18624;50.042;8.436;2022-07-06T08:23:54;101235.22;;;20.54;45.34
32109;BME280;18624;50.042;8.436;2022-07-06T08:26:21;101241.41;;;20.73;46.02
32109;BME280;18624;50.042;8.436;2022-07-06T08:28:48;101165.25;;;20.22;44.13
32109;BME280;18624;50.042;8.436;2022-07-06T08:31:15;101248.00;;;20.76;44.41
32109;BME280;18624;50.042;8.436;2022-07-06T08:34:02;101265.53;;;20.91;43.43
32109;BME280;18624;50.042;8.436;2022-07-06T08:36:28;101178.59;;;20.33;44.03
32109;BME280;18624;50.042;8.436;2022-07-06T08:38:55;101264.19;;;21.01;44.27
32109;BME280;18624;50.042;8.436;2022-07-06T08:41:24;101270.56;;;21.16;44.07
32109;BME280;18624;50.042;8.436;2022-07-06T08:43:52;101263.03;;;21.22;43.87
32109;BME280;18624;50.042;8.436;2022-07-06T08:46:20;101008.19;;;19.46;42.98
32109;BME280;18624;50.042;8.436;2022-07-06T08:48:47;101264.19;;;21.45;42.74
32109;BME280;18624;50.042;8.436;2022-07-06T08:51:14;101190.22;;;20.85;42.19
32109;BME280;18624;50.042;8.436;2022-07-06T08:53:45;101267.66;;;21.26;42.37
32109;BME280;18624;50.042;8.436;2022-07-06T08:56:15;101252.56;;;21.17;42.60
32109;BME280;18624;50.042;8.436;2022-07-06T08:58:42;100964.31;;;19.26;41.23
32109;BME280;18624;50.042;8.436;2022-07-06T09:01:09;101150.34;;;20.50;41.40
32109;BME280;18624;50.042;8.436;2022-07-06T09:03:39;101273.16;;;21.35;42.02
32109;BME280;18624;50.042;8.436;2022-07-06T09:06:07;101215.38;;;21.06;41.95
32109;BME280;18624;50.042;8.436;2022-07-06T09:08:34;101223.81;;;21.26;41.91
32109;BME280;18624;50.042;8.436;2022-07-06T09:11:03;101230.75;;;21.31;41.03
32109;BME280;18624;50.042;8.436;2022-07-06T09:13:30;101262.38;;;21.57;41.47
32109;BME280;18624;50.042;8.436;2022-07-06T09:16:09;101234.09;;;21.49;41.71
32109;BME280;18624;50.042;8.436;2022-07-06T09:18:56;101273.97;;;21.70;40.80
32109;BME280;18624;50.042;8.436;2022-07-06T09:21:25;101261.25;;;21.69;41.10
32109;BME280;18624;50.042;8.436;2022-07-06T09:23:57;101270.09;;;21.83;41.43
32109;BME280;18624;50.042;8.436;2022-07-06T09:26:24;101274.28;;;21.93;39.61
32109;BME280;18624;50.042;8.436;2022-07-06T09:28:51;101245.09;;;21.73;38.91
32109;BME280;18624;50.042;8.436;2022-07-06T09:31:18;101240.66;;;21.82;40.15
32109;BME280;18624;50.042;8.436;2022-07-06T09:33:55;101258.66;;;22.16;38.89
32109;BME280;18624;50.042;8.436;2022-07-06T09:39:17;101265.97;;;22.13;38.58
32109;BME280;18624;50.042;8.436;2022-07-06T09:41:45;101262.44;;;21.98;39.18
32109;BME280;18624;50.042;8.436;2022-07-06T09:44:12;101252.94;;;21.90;39.67
32109;BME280;18624;50.042;8.436;2022-07-06T09:46:42;101257.09;;;22.15;39.55
32109;BME280;18624;50.042;8.436;2022-07-06T09:49:09;101211.53;;;21.88;39.53
32109;BME280;18624;50.042;8.436;2022-07-06T09:51:37;101193.34;;;21.72;38.38
32109;BME280;18624;50.042;8.436;2022-07-06T09:54:07;101266.47;;;22.12;38.99
32109;BME280;18624;50.042;8.436;2022-07-06T09:56:38;101256.50;;;22.11;39.35
32109;BME280;18624;50.042;8.436;2022-07-06T09:59:09;101223.06;;;21.96;38.87
32109;BME280;18624;50.042;8.436;2022-07-06T10:01:38;101268.53;;;22.37;38.03
32109;BME280;18624;50.042;8.436;2022-07-06T10:04:11;101160.81;;;21.69;38.15
32109;BME280;18624;50.042;8.436;2022-07-06T10:06:41;101268.63;;;22.43;38.37
32109;BME280;18624;50.042;8.436;2022-07-06T10:09:09;101278.91;;;22.52;37.41
32109;BME280;18624;50.042;8.436;2022-07-06T10:11:41;101152.88;;;21.83;37.41
32109;BME280;18624;50.042;8.436;2022-07-06T10:14:08;101272.59;;;22.57;37.65
32109;BME280;18624;50.042;8.436;2022-07-06T10:16:36;101266.91;;;22.71;37.09
32109;BME280;18624;50.042;8.436;2022-07-06T10:19:08;101103.84;;;21.76;37.12
32109;BME280;18624;50.042;8.436;2022-07-06T10:21:37;101261.06;;;22.95;37.52
32109;BME280;18624;50.042;8.436;2022-07-06T10:24:05;101266.03;;;23.06;36.13
32109;BME280;18624;50.042;8.436;2022-07-06T10:26:33;101244.03;;;22.93;36.51
32109;BME280;18624;50.042;8.436;2022-07-06T10:29:04;101141.44;;;22.01;35.36
32109;BME280;18624;50.042;8.436;2022-07-06T10:31:32;101194.84;;;22.29;36.09
32109;BME280;18624;50.042;8.436;2022-07-06T10:34:05;101266.63;;;22.69;37.53
32109;BME280;18624;50.042;8.436;2022-07-06T10:36:36;101276.25;;;22.68;36.51
32109;BME280;18624;50.042;8.436;2022-07-06T10:39:05;101269.56;;;22.60;36.59
32109;BME280;18624;50.042;8.436;2022-07-06T10:41:52;101269.09;;;22.62;38.24
32109;BME280;18624;50.042;8.436;2022-07-06T10:44:27;101232.59;;;22.45;37.36
32109;BME280;18624;50.042;8.436;2022-07-06T10:46:55;101258.94;;;22.64;36.72
32109;BME280;18624;50.042;8.436;2022-07-06T10:49:23;101185.81;;;22.19;37.75
32109;BME280;18624;50.042;8.436;2022-07-06T10:52:09;101221.66;;;22.21;36.50
32109;BME280;18624;50.042;8.436;2022-07-06T10:54:39;101184.00;;;21.96;37.14
32109;BME280;18624;50.042;8.436;2022-07-06T10:57:10;101252.53;;;22.38;37.80
32109;BME280;18624;50.042;8.436;2022-07-06T10:59:41;101142.22;;;21.81;36.56
32109;BME280;18624;50.042;8.436;2022-07-06T11:02:12;101069.41;;;21.38;36.98
32109;BME280;18624;50.042;8.436;2022-07-06T11:04:45;101252.22;;;22.77;36.70
32109;BME280;18624;50.042;8.436;2022-07-06T11:07:17;101199.63;;;22.29;35.09
32109;BME280;18624;50.042;8.436;2022-07-06T11:09:57;101233.25;;;22.34;35.62
32109;BME280;18624;50.042;8.436;2022-07-06T11:12:25;101261.97;;;22.40;35.89
32109;BME280;18624;50.042;8.436;2022-07-06T11:14:52;101253.59;;;22.40;36.11
32109;BME280;18624;50.042;8.436;2022-07-06T11:17:19;101252.44;;;22.47;37.17
32109;BME280;18624;50.042;8.436;2022-07-06T11:19:49;101259.66;;;22.59;36.43
32109;BME280;18624;50.042;8.436;2022-07-06T11:22:17;101183.03;;;21.99;35.13
32109;BME280;18624;50.042;8.436;2022-07-06T11:24:47;101254.66;;;22.43;35.58
32109;BME280;18624;50.042;8.436;2022-07-06T11:27:13;101260.94;;;22.38;35.34
32109;BME280;18624;50.042;8.436;2022-07-06T11:29:40;100934.81;;;20.27;35.67
32109;BME280;18624;50.042;8.436;2022-07-06T11:32:08;101254.88;;;22.39;35.42
32109;BME280;18624;50.042;8.436;2022-07-06T11:34:43;101251.03;;;22.37;35.47
32109;BME280;18624;50.042;8.436;2022-07-06T11:37:12;101201.00;;;22.13;35.02
32109;BME280;18624;50.042;8.436;2022-07-06T11:39:41;101239.66;;;22.40;35.41
32109;BME280;18624;50.042;8.436;2022-07-06T11:42:08;101189.41;;;22.20;35.94
32109;BME280;18624;50.042;8.436;2022-07-06T11:44:36;101204.38;;;22.43;35.49
32109;BME280;18624;50.042;8.436;2022-07-06T11:47:03;101154.78;;;22.12;35.71
32109;BME280;18624;50.042;8.436;2022-07-06T11:49:31;101234.03;;;22.61;35.88
32109;BME280;18624;50.042;8.436;2022-07-06T11:51:58;101233.31;;;22.66;35.95
32109;BME280;18624;50.042;8.436;2022-07-06T11:54:25;101230.59;;;22.71;35.77
32109;BME280;18624;50.042;8.436;2022-07-06T11:59:25;101224.19;;;22.91;36.61
32109;BME280;18624;50.042;8.436;2022-07-06T12:02:06;101218.16;;;22.98;36.88
32109;BME280;18624;50.042;8.436;2022-07-06T12:04:34;101127.88;;;22.35;36.65
32109;BME280;18624;50.042;8.436;2022-07-06T12:07:03;101219.97;;;23.02;37.17
32109;BME280;18624;50.042;8.436;2022-07-06T12:09:32;101171.09;;;22.65;35.66
32109;BME280;18624;50.042;8.436;2022-07-06T12:11:58;100989.06;;;21.63;35.80
32109;BME280;18624;50.042;8.436;2022-07-06T12:14:30;101207.06;;;23.10;36.39
32109;BME280;18624;50.042;8.436;2022-07-06T12:17:03;101193.28;;;22.74;35.94
32109;BME280;18624;50.042;8.436;2022-07-06T12:19:30;101189.00;;;22.79;36.55
32109;BME280;18624;50.042;8.436;2022-07-06T12:21:59;101164.50;;;22.68;36.38
32109;BME280;18624;50.042;8.436;2022-07-06T12:24:28;101216.31;;;22.90;35.84
32109;BME280;18624;50.042;8.436;2022-07-06T12:26:57;101206.44;;;22.94;35.69
32109;BME280;18624;50.042;8.436;2022-07-06T12:29:23;101112.81;;;22.27;36.50
32109;BME280;18624;50.042;8.436;2022-07-06T12:31:52;101103.47;;;22.30;36.40
32109;BME280;18624;50.042;8.436;2022-07-06T12:34:21;101168.31;;;22.65;35.36
32109;BME280;18624;50.042;8.436;2022-07-06T12:36:53;101211.13;;;22.83;35.43
32109;BME280;18624;50.042;8.436;2022-07-06T12:39:21;101205.22;;;22.75;35.84
32109;BME280;18624;50.042;8.436;2022-07-06T12:41:52;101202.69;;;22.77;35.78
32109;BME280;18624;50.042;8.436;2022-07-06T12:44:23;101210.63;;;22.84;35.66
32109;BME280;18624;50.042;8.436;2022-07-06T12:47:04;101209.13;;;22.83;35.53
32109;BME280;18624;50.042;8.436;2022-07-06T12:49:31;101200.78;;;22.63;34.41
32109;BME280;18624;50.042;8.436;2022-07-06T12:59:57;101068.31;;;21.97;36.11
32109;BME280;18624;50.042;8.436;2022-07-06T13:02:31;101200.28;;;22.90;37.11
32109;BME280;18624;50.042;8.436;2022-07-06T13:05:18;101027.75;;;21.76;35.64
32109;BME280;18624;50.042;8.436;2022-07-06T13:07:46;101090.63;;;22.17;36.53
32109;BME280;18624;50.042;8.436;2022-07-06T13:10:15;101184.91;;;22.74;36.81
32109;BME280;18624;50.042;8.436;2022-07-06T13:12:43;101200.19;;;22.79;36.61
32109;BME280;18624;50.042;8.436;2022-07-06T13:15:10;101185.06;;;22.65;37.89